createdAt,value
2017-09-15T00:00:30.562Z,70.90
2017-09-15T00:02:58.173Z,70.70
2017-09-15T00:05:26.652Z,71.00
2017-09-15T00:07:54.255Z,71.70
2017-09-15T00:10:21.908Z,70.90
2017-09-15T00:12:50.310Z,71.00
2017-09-15T00:15:17.908Z,70.90
2017-09-15T00:17:45.555Z,71.10
2017-09-15T00:20:13.184Z,71.10
2017-09-15T00:22:40.840Z,70.90
2017-09-15T00:25:08.441Z,71.10
2017-09-15T00:27:36.080Z,71.00
2017-09-15T00:30:03.683Z,71.00
2017-09-15T00:32:31.394Z,71.00
2017-09-15T00:34:58.992Z,71.10
2017-09-15T00:37:26.606Z,70.70
2017-09-15T00:39:54.991Z,70.50
2017-09-15T00:42:23.356Z,70.70
2017-09-15T00:44:51.724Z,70.60
2017-09-15T00:47:20.832Z,70.60
2017-09-15T00:49:49.234Z,70.60
2017-09-15T00:52:16.837Z,70.40
2017-09-15T00:54:44.441Z,70.20
2017-09-15T00:57:12.804Z,70.60
2017-09-15T00:59:40.494Z,70.40
2017-09-15T01:02:08.865Z,70.40
2017-09-15T01:04:37.225Z,70.50
2017-09-15T01:07:04.921Z,70.40
2017-09-15T01:09:32.585Z,70.40
2017-09-15T01:12:00.240Z,70.50
2017-09-15T01:14:27.876Z,70.50
2017-09-15T01:16:56.243Z,70.80
2017-09-15T01:19:23.852Z,70.80
2017-09-15T01:21:51.496Z,70.80
2017-09-15T01:24:19.871Z,70.50
2017-09-15T01:26:48.237Z,70.60
2017-09-15T01:29:15.840Z,70.50
2017-09-15T01:31:43.434Z,70.70
2017-09-15T01:34:11.034Z,70.50
2017-09-15T01:36:39.403Z,70.60
2017-09-15T01:39:07.408Z,70.60
2017-09-15T01:41:35.003Z,70.80
2017-09-15T01:44:02.605Z,70.60
2017-09-15T01:46:30.972Z,71.00
2017-09-15T01:48:58.573Z,70.50
2017-09-15T01:51:26.225Z,70.50
2017-09-15T01:53:54.603Z,70.60
2017-09-15T01:56:23.804Z,70.50
2017-09-15T01:58:52.181Z,70.50
2017-09-15T02:01:20.540Z,70.50
2017-09-15T02:03:48.139Z,70.50
2017-09-15T02:06:16.524Z,71.10
2017-09-15T02:08:44.171Z,70.80
2017-09-15T02:11:12.537Z,70.50
2017-09-15T02:13:40.927Z,70.50
2017-09-15T02:16:09.290Z,70.40
2017-09-15T02:18:37.653Z,70.60
2017-09-15T02:21:05.248Z,70.60
2017-09-15T02:23:33.639Z,71.00
2017-09-15T02:26:01.235Z,71.00
2017-09-15T02:28:28.827Z,70.90
2017-09-15T02:30:56.422Z,70.60
2017-09-15T02:33:24.025Z,70.70
2017-09-15T02:35:51.733Z,70.60
2017-09-15T02:38:20.112Z,70.60
2017-09-15T02:40:48.474Z,70.60
2017-09-15T02:43:16.067Z,70.60
2017-09-15T02:45:43.671Z,70.90
2017-09-15T02:48:11.321Z,70.80
2017-09-15T02:50:38.948Z,70.80
2017-09-15T02:53:06.615Z,70.70
2017-09-15T02:55:34.285Z,70.60
2017-09-15T02:58:01.887Z,70.70
2017-09-15T03:00:30.263Z,70.90
2017-09-15T03:02:57.959Z,71.10
2017-09-15T03:05:26.526Z,70.80
2017-09-15T03:07:54.985Z,70.60
2017-09-15T03:10:24.327Z,70.50
2017-09-15T03:12:51.929Z,70.60
2017-09-15T03:15:19.524Z,70.70
2017-09-15T03:17:48.000Z,71.00
2017-09-15T03:20:17.213Z,71.10
2017-09-15T03:22:44.812Z,71.00
2017-09-15T03:25:12.403Z,71.10
2017-09-15T03:27:40.101Z,71.00
2017-09-15T03:30:07.695Z,70.80
2017-09-15T03:32:35.312Z,70.90
2017-09-15T03:35:03.811Z,71.10
2017-09-15T03:37:31.462Z,71.10
2017-09-15T03:39:59.823Z,70.90
2017-09-15T03:42:28.235Z,70.80
2017-09-15T03:44:55.833Z,70.80
2017-09-15T03:47:23.422Z,71.00
2017-09-15T03:49:51.019Z,71.20
2017-09-15T03:52:19.536Z,70.90
2017-09-15T03:54:47.171Z,70.90
2017-09-15T03:57:15.636Z,71.00
2017-09-15T03:59:43.239Z,71.00
2017-09-15T04:02:10.907Z,70.80
2017-09-15T04:04:38.511Z,70.80
2017-09-15T04:07:06.876Z,70.70
2017-09-15T04:09:35.249Z,71.50
2017-09-15T04:12:02.849Z,70.70
2017-09-15T04:14:30.499Z,70.90
2017-09-15T04:16:58.865Z,71.20
2017-09-15T04:19:27.272Z,70.70
2017-09-15T04:21:54.880Z,70.70
2017-09-15T04:24:23.313Z,71.20
2017-09-15T04:26:50.916Z,70.70
2017-09-15T04:29:19.432Z,70.60
2017-09-15T04:31:47.848Z,70.80
2017-09-15T04:34:15.441Z,70.80
2017-09-15T04:36:43.040Z,71.10
2017-09-15T04:39:12.100Z,71.50
2017-09-15T04:41:39.820Z,71.50
2017-09-15T04:44:07.460Z,71.40
2017-09-15T04:46:36.507Z,71.00
2017-09-15T04:49:05.020Z,71.10
2017-09-15T04:51:32.620Z,71.00
2017-09-15T04:54:00.285Z,71.00
2017-09-15T04:56:27.935Z,71.20
2017-09-15T04:58:56.297Z,71.30
2017-09-15T05:01:24.582Z,71.30
2017-09-15T05:03:53.508Z,71.90
2017-09-15T05:06:21.944Z,72.00
2017-09-15T05:08:50.980Z,72.00
2017-09-15T05:11:18.605Z,72.10
2017-09-15T05:13:46.236Z,72.50
2017-09-15T05:16:13.860Z,72.90
2017-09-15T05:18:42.463Z,73.20
2017-09-15T05:21:10.065Z,74.00
2017-09-15T05:23:38.465Z,72.80
2017-09-15T05:26:06.896Z,73.10
2017-09-15T05:28:34.493Z,73.20
2017-09-15T05:31:03.001Z,73.20
2017-09-15T05:33:31.363Z,73.20
2017-09-15T05:35:59.741Z,73.80
2017-09-15T05:38:27.381Z,73.80
2017-09-15T05:40:54.979Z,73.60
2017-09-15T05:43:23.355Z,73.70
2017-09-15T05:45:51.728Z,73.70
2017-09-15T05:48:20.106Z,73.50
2017-09-15T05:50:48.621Z,73.50
2017-09-15T05:53:16.232Z,73.60
2017-09-15T05:55:43.880Z,73.40
2017-09-15T05:58:11.487Z,73.60
2017-09-15T06:00:39.875Z,73.70
2017-09-15T06:03:08.275Z,73.70
2017-09-15T06:05:36.678Z,73.70
2017-09-15T06:08:04.881Z,74.20
2017-09-15T06:10:32.486Z,74.10
2017-09-15T06:13:00.277Z,74.00
2017-09-15T06:15:29.420Z,74.00
2017-09-15T06:17:57.796Z,74.20
2017-09-15T06:20:26.209Z,74.50
2017-09-15T06:22:53.810Z,74.60
2017-09-15T06:25:21.461Z,74.50
2017-09-15T06:27:49.065Z,74.40
2017-09-15T06:30:17.445Z,74.80
2017-09-15T06:32:45.819Z,75.20
2017-09-15T06:35:13.416Z,74.50
2017-09-15T06:37:41.076Z,74.10
2017-09-15T06:40:08.677Z,74.70
2017-09-15T06:42:36.314Z,75.00
2017-09-15T06:45:03.920Z,75.00
2017-09-15T06:47:32.434Z,75.30
2017-09-15T06:50:00.801Z,75.60
2017-09-15T06:52:29.991Z,75.40
2017-09-15T06:54:57.685Z,76.20
2017-09-15T06:57:25.290Z,75.30
2017-09-15T06:59:52.941Z,75.30
2017-09-15T07:02:20.540Z,75.70
2017-09-15T07:04:48.171Z,75.70
2017-09-15T07:07:15.783Z,75.50
2017-09-15T07:09:44.166Z,75.60
2017-09-15T07:12:12.536Z,75.70
2017-09-15T07:14:40.927Z,75.90
2017-09-15T07:17:09.988Z,76.30
2017-09-15T07:19:37.621Z,76.20
2017-09-15T07:22:05.225Z,76.60
2017-09-15T07:24:33.638Z,77.10
2017-09-15T07:27:01.244Z,77.80
2017-09-15T07:29:28.854Z,77.00
2017-09-15T07:31:57.229Z,77.10
2017-09-15T07:34:25.656Z,77.00
2017-09-15T07:36:53.253Z,77.00
2017-09-15T07:39:20.858Z,76.90
2017-09-15T07:41:48.501Z,76.70
2017-09-15T07:44:16.161Z,76.90
2017-09-15T07:46:44.572Z,76.70
2017-09-15T07:49:13.022Z,77.00
2017-09-15T07:51:42.209Z,76.90
2017-09-15T07:54:10.587Z,77.20
2017-09-15T07:56:38.961Z,77.20
2017-09-15T07:59:07.336Z,77.80
2017-09-15T08:01:36.443Z,77.00
2017-09-15T08:04:04.872Z,76.90
2017-09-15T08:06:32.479Z,76.90
2017-09-15T08:09:01.639Z,76.70
2017-09-15T08:11:29.247Z,76.80
2017-09-15T08:13:57.622Z,76.60
2017-09-15T08:16:26.005Z,76.60
2017-09-15T08:18:54.382Z,76.60
2017-09-15T08:21:22.791Z,77.00
2017-09-15T08:23:50.398Z,76.70
2017-09-15T08:26:18.028Z,76.50
2017-09-15T08:28:45.703Z,76.40
2017-09-15T08:31:13.462Z,76.50
2017-09-15T08:42:19.271Z,76.20
2017-09-15T08:44:48.480Z,76.20
2017-09-15T08:47:16.180Z,76.20
2017-09-15T08:49:43.815Z,76.50
2017-09-15T08:52:12.308Z,76.70
2017-09-15T08:54:39.964Z,76.60
2017-09-15T08:57:07.568Z,76.80
2017-09-15T08:59:35.998Z,76.70
2017-09-15T09:02:03.605Z,76.70
2017-09-15T09:04:31.209Z,76.70
2017-09-15T09:06:59.613Z,76.90
2017-09-15T09:09:27.207Z,76.80
2017-09-15T09:11:54.856Z,76.90
2017-09-15T09:14:22.458Z,77.10
2017-09-15T09:16:50.147Z,76.70
2017-09-15T09:19:17.747Z,76.50
2017-09-15T09:21:45.373Z,76.20
2017-09-15T09:24:13.911Z,76.60
2017-09-15T09:26:42.539Z,76.60
2017-09-15T09:29:10.907Z,76.40
2017-09-15T09:31:39.929Z,76.50
2017-09-15T09:34:07.588Z,76.50
2017-09-15T09:36:35.188Z,76.50
2017-09-15T09:39:02.850Z,76.60
2017-09-15T09:41:30.572Z,77.00
2017-09-15T09:43:58.251Z,77.90
2017-09-15T09:46:25.862Z,76.80
2017-09-15T09:48:53.497Z,76.90
2017-09-15T09:51:21.124Z,76.90
2017-09-15T09:53:48.735Z,77.10
2017-09-15T09:56:16.447Z,77.10
2017-09-15T09:58:44.044Z,77.40
2017-09-15T10:01:11.647Z,77.20
2017-09-15T10:03:40.017Z,77.30
2017-09-15T10:06:07.669Z,77.30
2017-09-15T10:08:35.280Z,77.10
2017-09-15T10:11:02.941Z,77.10
2017-09-15T10:13:30.573Z,77.30
2017-09-15T10:15:58.944Z,77.30
2017-09-15T10:18:26.576Z,77.30
2017-09-15T10:20:54.309Z,77.00
2017-09-15T10:23:21.908Z,77.10
2017-09-15T10:25:49.548Z,77.20
2017-09-15T10:28:17.198Z,77.10
2017-09-15T10:30:44.860Z,76.80
2017-09-15T10:33:12.507Z,76.60
2017-09-15T10:35:40.896Z,76.60
2017-09-15T10:38:09.302Z,76.20
2017-09-15T10:40:36.895Z,76.20
2017-09-15T10:43:04.503Z,76.20
2017-09-15T10:45:33.029Z,76.10
2017-09-15T10:48:00.671Z,76.20
2017-09-15T10:50:28.312Z,76.00
2017-09-15T10:52:55.910Z,76.00
2017-09-15T10:55:23.562Z,75.80
2017-09-15T10:57:56.781Z,75.90
2017-09-15T11:00:24.419Z,75.60
2017-09-15T11:02:52.052Z,75.60
2017-09-15T11:05:19.671Z,75.60
2017-09-15T11:07:47.313Z,75.70
2017-09-15T11:10:16.130Z,76.20
2017-09-15T11:12:44.587Z,75.60
2017-09-15T11:15:12.188Z,75.60
2017-09-15T11:17:40.560Z,75.60
2017-09-15T11:20:08.284Z,75.50
2017-09-15T11:22:35.907Z,76.20
2017-09-15T11:25:04.319Z,76.40
2017-09-15T11:27:32.708Z,76.30
2017-09-15T11:30:00.309Z,76.50
2017-09-15T11:32:27.939Z,76.80
2017-09-15T11:34:55.553Z,76.60
2017-09-15T11:37:23.945Z,75.80
2017-09-15T11:39:51.547Z,75.80
2017-09-15T11:42:19.182Z,75.30
2017-09-15T11:44:46.816Z,75.70
2017-09-15T11:47:15.187Z,76.70
2017-09-15T11:49:43.608Z,76.30
2017-09-15T11:52:11.978Z,76.40
2017-09-15T11:54:39.581Z,76.60
2017-09-15T11:57:07.182Z,77.20
2017-09-15T11:59:35.580Z,77.50
2017-09-15T12:02:03.178Z,77.50
2017-09-15T12:04:30.891Z,77.30
2017-09-15T12:06:59.264Z,76.80
2017-09-15T12:09:27.675Z,76.50
2017-09-15T12:11:55.277Z,76.40
2017-09-15T12:14:22.976Z,76.50
2017-09-15T12:16:51.345Z,75.30
2017-09-15T12:19:19.709Z,75.30
2017-09-15T12:21:47.353Z,75.30
2017-09-15T12:24:15.009Z,75.90
2017-09-15T12:26:42.613Z,76.40
2017-09-15T12:29:11.005Z,75.30
2017-09-15T12:31:39.383Z,75.40
2017-09-15T12:34:07.053Z,75.40
2017-09-15T12:36:34.693Z,75.80
2017-09-15T12:39:03.069Z,75.70
2017-09-15T12:41:30.695Z,75.60
2017-09-15T12:43:58.820Z,75.10
2017-09-15T12:46:27.415Z,76.00
2017-09-15T12:48:55.017Z,76.10
2017-09-15T12:51:22.671Z,76.10
2017-09-15T12:53:50.268Z,76.30
2017-09-15T12:56:17.940Z,76.40
2017-09-15T12:58:47.336Z,76.30
2017-09-15T13:01:15.844Z,75.50
2017-09-15T13:03:44.255Z,76.10
2017-09-15T13:06:11.992Z,76.10
2017-09-15T13:08:39.698Z,75.80
2017-09-15T13:11:07.296Z,76.10
2017-09-15T13:13:35.705Z,75.90
2017-09-15T13:16:03.368Z,75.90
2017-09-15T13:18:31.023Z,76.20
2017-09-15T13:20:59.385Z,76.30
2017-09-15T13:23:27.797Z,76.40
2017-09-15T13:25:55.402Z,76.40
2017-09-15T13:28:23.019Z,76.10
2017-09-15T13:30:50.660Z,75.90
2017-09-15T13:33:19.057Z,75.40
2017-09-15T13:35:46.661Z,75.30
2017-09-15T13:38:14.264Z,75.20
2017-09-15T13:40:42.647Z,74.90
2017-09-15T13:43:11.012Z,74.80
2017-09-15T13:45:39.406Z,74.80
2017-09-15T13:48:07.808Z,75.00
2017-09-15T13:50:36.304Z,75.00
2017-09-15T13:53:04.675Z,75.00
2017-09-15T13:55:32.280Z,74.90
2017-09-15T13:57:59.889Z,74.80
2017-09-15T14:00:27.525Z,75.00
2017-09-15T14:02:55.887Z,75.20
2017-09-15T14:05:23.487Z,75.20
2017-09-15T14:07:51.080Z,75.50
2017-09-15T14:10:19.868Z,75.50
2017-09-15T14:12:47.479Z,75.60
2017-09-15T14:15:15.845Z,76.00
2017-09-15T14:17:43.444Z,76.00
2017-09-15T14:20:11.039Z,75.90
2017-09-15T14:22:38.635Z,75.90
2017-09-15T14:25:07.008Z,76.20
2017-09-15T14:27:34.736Z,76.10
2017-09-15T14:30:02.345Z,76.40
2017-09-15T14:32:30.845Z,77.30
2017-09-15T14:34:59.216Z,76.50
2017-09-15T14:37:27.581Z,76.90
2017-09-15T14:39:55.600Z,76.80
2017-09-15T14:42:23.207Z,76.60
2017-09-15T14:44:50.898Z,76.80
2017-09-15T14:47:19.266Z,75.90
2017-09-15T14:49:47.625Z,76.60
2017-09-15T14:52:16.045Z,76.50
2017-09-15T14:54:43.700Z,75.90
2017-09-15T14:57:13.008Z,76.80
2017-09-15T14:59:40.668Z,76.80
2017-09-15T15:02:08.307Z,77.20
2017-09-15T15:04:36.001Z,77.30
2017-09-15T15:07:03.657Z,77.20
2017-09-15T15:09:32.026Z,77.40
2017-09-15T15:12:00.452Z,77.30
2017-09-15T15:14:28.116Z,77.30
2017-09-15T15:16:55.716Z,77.50
2017-09-15T15:19:24.344Z,77.80
2017-09-15T15:21:52.786Z,77.70
2017-09-15T15:24:20.413Z,77.60
2017-09-15T15:26:48.016Z,78.10
2017-09-15T15:29:16.415Z,77.70
2017-09-15T15:31:44.069Z,77.70
2017-09-15T15:34:12.459Z,78.10
2017-09-15T15:36:40.792Z,78.10
2017-09-15T15:39:09.196Z,78.20
2017-09-15T15:41:38.476Z,77.50
2017-09-15T15:44:07.816Z,77.40
2017-09-15T15:46:37.084Z,77.00
2017-09-15T15:49:04.687Z,77.00
2017-09-15T15:51:33.080Z,77.50
2017-09-15T15:54:00.725Z,76.60
2017-09-15T15:56:28.324Z,76.90
2017-09-15T15:58:56.833Z,77.70
2017-09-15T16:01:24.539Z,76.60
2017-09-15T16:03:52.192Z,76.40
2017-09-15T16:06:19.894Z,76.30
2017-09-15T16:08:47.494Z,76.40
2017-09-15T16:11:15.104Z,76.50
2017-09-15T16:13:42.716Z,76.90
2017-09-15T16:16:10.412Z,76.50
2017-09-15T16:18:38.013Z,76.70
2017-09-15T16:21:05.678Z,76.50
2017-09-15T16:23:33.281Z,76.80
2017-09-15T16:26:01.652Z,76.80
2017-09-15T16:28:30.024Z,76.70
2017-09-15T16:30:57.646Z,76.60
2017-09-15T16:33:25.288Z,76.80
2017-09-15T16:35:52.893Z,76.70
2017-09-15T16:38:26.206Z,76.80
2017-09-15T16:40:59.633Z,76.80
2017-09-15T16:43:33.060Z,76.20
2017-09-15T16:46:06.384Z,76.70
2017-09-15T16:48:39.632Z,77.10
2017-09-15T16:51:07.245Z,77.90
2017-09-15T16:53:34.948Z,77.60
2017-09-15T16:56:02.553Z,77.60
2017-09-15T16:58:30.168Z,77.70
2017-09-15T17:00:58.644Z,77.40
2017-09-15T17:03:27.028Z,77.40
2017-09-15T17:05:55.389Z,77.40
2017-09-15T17:08:23.760Z,77.60
2017-09-15T17:10:51.363Z,77.60
2017-09-15T17:13:18.972Z,77.50
2017-09-15T17:15:47.361Z,77.70
2017-09-15T17:18:15.057Z,77.60
2017-09-15T17:20:43.434Z,77.20
2017-09-15T17:23:11.805Z,77.30
2017-09-15T17:25:40.204Z,77.40
2017-09-15T17:28:07.855Z,77.20
2017-09-15T17:30:36.335Z,77.90
2017-09-15T17:33:04.700Z,77.90
2017-09-15T17:35:32.349Z,77.90
2017-09-15T17:38:00.058Z,78.10
2017-09-15T17:40:27.673Z,78.10
2017-09-15T17:42:55.312Z,78.20
2017-09-15T17:45:23.045Z,79.30
2017-09-15T17:47:50.646Z,79.80
2017-09-15T17:50:20.375Z,79.80
2017-09-15T17:52:48.751Z,79.50
2017-09-15T17:55:17.180Z,79.50
2017-09-15T17:57:45.037Z,79.60
2017-09-15T18:00:13.446Z,79.50
2017-09-15T18:02:41.189Z,79.70
2017-09-15T18:05:08.788Z,79.60
2017-09-15T18:07:36.414Z,79.70
2017-09-15T18:10:04.071Z,80.50
2017-09-15T18:12:31.675Z,79.80
2017-09-15T18:14:59.322Z,79.90
2017-09-15T18:17:26.924Z,80.00
2017-09-15T18:19:54.529Z,80.00
2017-09-15T18:22:22.824Z,80.00
2017-09-15T18:24:51.262Z,79.50
2017-09-15T18:27:20.456Z,79.70
2017-09-15T18:29:48.837Z,78.80
2017-09-15T18:32:17.222Z,79.40
2017-09-15T18:34:45.636Z,79.40
2017-09-15T18:37:13.395Z,79.40
2017-09-15T18:39:41.005Z,79.50
2017-09-15T18:42:09.538Z,79.60
2017-09-15T18:44:38.047Z,79.90
2017-09-15T18:47:06.539Z,79.70
2017-09-15T18:49:34.140Z,79.40
2017-09-15T18:52:02.505Z,79.50
2017-09-15T18:54:30.333Z,79.40
2017-09-15T18:56:57.948Z,79.50
2017-09-15T18:59:27.144Z,80.10
2017-09-15T19:01:56.381Z,80.00
2017-09-15T19:04:24.738Z,80.00
2017-09-15T19:06:54.016Z,79.30
2017-09-15T19:09:22.524Z,79.70
2017-09-15T19:11:50.133Z,79.70
2017-09-15T19:14:17.915Z,79.50
2017-09-15T19:16:46.400Z,79.70
2017-09-15T19:19:14.059Z,79.80
2017-09-15T19:21:42.495Z,79.50
2017-09-15T19:24:10.100Z,79.70
2017-09-15T19:26:37.711Z,79.60
2017-09-15T19:29:05.369Z,79.70
2017-09-15T19:31:33.025Z,79.90
2017-09-15T19:34:01.388Z,79.60
2017-09-15T19:36:29.787Z,79.70
2017-09-15T19:38:57.447Z,79.60
2017-09-15T19:41:25.945Z,79.60
2017-09-15T19:43:54.249Z,79.60
2017-09-15T19:46:21.905Z,79.80
2017-09-15T19:48:49.512Z,79.80
2017-09-15T19:51:17.855Z,79.60
2017-09-15T19:53:46.231Z,79.80
2017-09-15T19:56:13.867Z,79.70
2017-09-15T19:58:41.478Z,79.80
2017-09-15T20:01:09.111Z,79.70
2017-09-15T20:03:36.708Z,80.00
2017-09-15T20:06:04.412Z,79.70
2017-09-15T20:08:32.793Z,79.70
2017-09-15T20:11:00.442Z,79.90
2017-09-15T20:13:28.804Z,79.70
2017-09-15T20:15:57.176Z,79.70
2017-09-15T20:18:24.784Z,79.70
2017-09-15T20:20:52.436Z,79.90
2017-09-15T20:23:20.072Z,79.70
2017-09-15T20:25:48.491Z,79.90
2017-09-15T20:28:16.093Z,79.70
2017-09-15T20:30:43.696Z,79.90
2017-09-15T20:33:12.052Z,79.70
2017-09-15T20:35:39.648Z,79.70
2017-09-15T20:38:07.305Z,79.80
2017-09-15T20:40:34.912Z,79.90
2017-09-15T20:43:02.552Z,79.60
2017-09-15T20:45:30.145Z,79.70
2017-09-15T20:47:57.752Z,80.40
2017-09-15T20:50:25.446Z,79.70
2017-09-15T20:52:53.783Z,79.40
2017-09-15T20:55:22.277Z,79.90
2017-09-15T20:57:49.912Z,79.70
2017-09-15T21:00:21.224Z,80.30
2017-09-15T21:02:48.861Z,79.40
2017-09-15T21:05:16.513Z,79.40
2017-09-15T21:07:44.149Z,79.90
2017-09-15T21:10:13.481Z,79.50
2017-09-15T21:12:41.132Z,79.50
2017-09-15T21:15:10.336Z,79.60
2017-09-15T21:17:38.742Z,79.50
2017-09-15T21:20:06.343Z,79.80
2017-09-15T21:22:33.978Z,79.90
2017-09-15T21:25:01.618Z,79.80
2017-09-15T21:27:29.223Z,79.90
2017-09-15T21:29:56.832Z,79.70
2017-09-15T21:32:24.493Z,79.70
2017-09-15T21:34:53.778Z,79.70
2017-09-15T21:37:21.429Z,79.70
2017-09-15T21:39:49.836Z,80.20
2017-09-15T21:42:17.441Z,80.20
2017-09-15T21:44:45.088Z,80.50
2017-09-15T21:47:13.313Z,80.20
2017-09-15T21:49:41.720Z,80.60
2017-09-15T21:52:10.159Z,79.80
2017-09-15T21:54:37.852Z,79.60
2017-09-15T21:57:06.215Z,80.20
2017-09-15T21:59:33.832Z,80.20
2017-09-15T22:02:01.504Z,80.50
2017-09-15T22:04:35.744Z,80.40
2017-09-15T22:07:03.844Z,80.50
2017-09-15T22:09:32.340Z,80.30
2017-09-15T22:11:59.940Z,80.30
2017-09-15T22:14:27.583Z,80.50
2017-09-15T22:16:55.969Z,80.70
2017-09-15T22:19:23.630Z,80.70
2017-09-15T22:21:52.128Z,81.10
2017-09-15T22:24:19.733Z,80.50
2017-09-15T22:26:48.130Z,81.10
2017-09-15T22:29:16.444Z,81.10
2017-09-15T22:31:44.996Z,80.80
2017-09-15T22:34:12.627Z,80.70
2017-09-15T22:36:41.147Z,80.90
2017-09-15T22:39:09.655Z,81.20
2017-09-15T22:41:38.079Z,81.30
2017-09-15T22:44:06.475Z,80.80
2017-09-15T22:46:34.953Z,80.70
2017-09-15T22:49:03.435Z,80.50
2017-09-15T22:51:31.854Z,80.50
2017-09-15T22:53:59.464Z,80.40
2017-09-15T22:56:28.628Z,79.90
2017-09-15T22:58:56.311Z,79.60
2017-09-15T23:01:24.812Z,79.60
2017-09-15T23:03:53.217Z,79.40
2017-09-15T23:06:21.796Z,79.40
2017-09-15T23:08:50.237Z,79.10
2017-09-15T23:11:19.373Z,78.60
2017-09-15T23:13:47.735Z,78.50
2017-09-15T23:16:16.139Z,78.40
2017-09-15T23:18:43.735Z,78.40
2017-09-15T23:21:11.331Z,78.20
2017-09-15T23:23:39.020Z,78.10
2017-09-15T23:26:06.615Z,78.20
2017-09-15T23:28:34.247Z,78.00
2017-09-15T23:31:01.904Z,77.90
2017-09-15T23:33:30.269Z,77.70
2017-09-15T23:35:58.689Z,77.80
2017-09-15T23:38:26.293Z,77.80
2017-09-15T23:40:53.933Z,77.60
2017-09-15T23:43:21.528Z,77.50
2017-09-15T23:45:49.124Z,77.50
2017-09-15T23:48:16.715Z,78.40
2017-09-15T23:50:44.312Z,77.60
2017-09-15T23:53:11.939Z,77.50
2017-09-15T23:55:39.546Z,77.00
2017-09-15T23:58:07.936Z,77.20
